Time,TemperatureF,DewpointF,PressureIn,WindDirection,WindDirectionDegrees,WindSpeedMPH,WindSpeedGustMPH,Humidity,HourlyPrecipIn,Conditions,Clouds,dailyrainin,SolarRadiationWatts/m^2,SoftwareType,DateUTC
2013-06-21 00:05:00,82.8,67.0,29.89,SW,223,3.0,7.0,60,0.00,,,0.00,0,weatherlink.com 1.10,2013-06-20 22:05:00,
2013-06-21 00:20:00,82.7,68.0,29.88,SW,229,2.0,9.0,61,0.00,,,0.00,0,weatherlink.com 1.10,2013-06-20 22:20:00,
2013-06-21 00:35:00,82.4,68.0,29.88,SSW,211,2.0,8.0,62,0.00,,,0.00,0,weatherlink.com 1.10,2013-06-20 22:35:00,
2013-06-21 00:50:00,82.0,68.0,29.88,SW,232,2.0,4.0,63,0.00,,,0.00,0,weatherlink.com 1.10,2013-06-20 22:50:00,
2013-06-21 01:05:00,81.5,69.0,29.89,SW,219,1.0,7.0,65,0.00,,,0.00,0,weatherlink.com 1.10,2013-06-20 23:05:00,
2013-06-21 01:20:00,81.3,69.0,29.89,SW,215,4.0,10.0,66,0.00,,,0.00,0,weatherlink.com 1.10,2013-06-20 23:20:00,
2013-06-21 01:35:00,81.2,69.0,29.89,SSW,202,3.0,11.0,67,0.00,,,0.00,0,weatherlink.com 1.10,2013-06-20 23:35:00,
2013-06-21 01:50:00,80.9,69.0,29.89,SW,215,6.0,10.0,68,0.00,,,0.00,0,weatherlink.com 1.10,2013-06-20 23:50:00,
2013-06-21 02:05:00,80.9,70.0,29.89,SSW,212,3.0,8.0,69,0.00,,,0.00,0,weatherlink.com 1.10,2013-06-21 00:05:00,
2013-06-21 02:20:00,80.7,70.0,29.89,SSW,201,1.0,7.0,69,0.00,,,0.00,0,weatherlink.com 1.10,2013-06-21 00:20:00,
2013-06-21 02:35:00,80.4,70.0,29.89,SW,222,1.0,4.0,70,0.00,,,0.00,0,weatherlink.com 1.10,2013-06-21 00:35:00,
2013-06-21 02:50:00,80.0,70.0,29.88,SW,233,0.0,4.0,71,0.00,,,0.00,0,weatherlink.com 1.10,2013-06-21 00:50:00,
2013-06-21 03:05:00,79.5,70.0,29.88,WSW,239,0.0,4.0,72,0.00,,,0.00,0,weatherlink.com 1.10,2013-06-21 01:05:00,
2013-06-21 03:20:00,78.8,69.0,29.88,SW,227,0.0,5.0,73,0.00,,,0.00,0,weatherlink.com 1.10,2013-06-21 01:20:00,
2013-06-21 03:35:00,78.3,69.0,29.88,SW,235,1.0,2.0,74,0.00,,,0.00,0,weatherlink.com 1.10,2013-06-21 01:35:00,
2013-06-21 03:50:00,77.7,70.0,29.88,North,360,3.0,4.0,76,0.00,,,0.00,0,weatherlink.com 1.10,2013-06-21 01:50:00,
2013-06-21 04:05:00,77.4,70.0,29.89,SW,232,0.0,5.0,77,0.00,,,0.00,0,weatherlink.com 1.10,2013-06-21 02:05:00,
2013-06-21 04:20:00,77.2,70.0,29.88,SW,229,0.0,2.0,77,0.00,,,0.00,0,weatherlink.com 1.10,2013-06-21 02:20:00,
2013-06-21 04:35:00,76.9,70.0,29.89,SW,229,1.0,3.0,78,0.00,,,0.00,0,weatherlink.com 1.10,2013-06-21 02:35:00,
2013-06-21 04:50:00,76.5,70.0,29.89,SW,231,1.0,2.0,79,0.00,,,0.00,0,weatherlink.com 1.10,2013-06-21 02:50:00,
2013-06-21 05:05:00,76.1,70.0,29.89,SW,229,1.0,3.0,80,0.00,,,0.00,7,weatherlink.com 1.10,2013-06-21 03:05:00,
2013-06-21 05:20:00,76.1,70.0,29.89,SW,232,2.0,3.0,81,0.00,,,0.00,19,weatherlink.com 1.10,2013-06-21 03:20:00,
2013-06-21 05:35:00,76.2,70.0,29.89,SW,233,0.0,3.0,81,0.00,,,0.00,28,weatherlink.com 1.10,2013-06-21 03:35:00,
2013-06-21 05:50:00,76.4,70.0,29.89,SW,233,0.0,3.0,81,0.00,,,0.00,35,weatherlink.com 1.10,2013-06-21 03:50:00,
2013-06-21 06:05:00,76.9,70.0,29.89,SSE,152,1.0,6.0,80,0.00,,,0.00,95,weatherlink.com 1.10,2013-06-21 04:05:00,
2013-06-21 06:21:00,77.8,70.0,29.88,SSW,195,2.0,4.0,78,0.00,,,0.00,135,weatherlink.com 1.10,2013-06-21 04:21:00,
2013-06-21 06:36:00,78.6,70.0,29.88,East,88,3.0,4.0,76,0.00,,,0.00,183,weatherlink.com 1.10,2013-06-21 04:36:00,
2013-06-21 06:51:00,79.1,71.0,29.88,SW,219,2.0,6.0,76,0.00,,,0.00,232,weatherlink.com 1.10,2013-06-21 04:51:00,
2013-06-21 07:06:00,79.8,71.0,29.88,SW,219,3.0,5.0,74,0.00,,,0.00,272,weatherlink.com 1.10,2013-06-21 05:06:00,
2013-06-21 07:21:00,81.0,72.0,29.88,ESE,111,2.0,4.0,73,0.00,,,0.00,316,weatherlink.com 1.10,2013-06-21 05:21:00,
2013-06-21 07:36:00,81.7,71.0,29.88,SSE,166,3.0,5.0,71,0.00,,,0.00,360,weatherlink.com 1.10,2013-06-21 05:36:00,
2013-06-21 07:51:00,82.0,71.0,29.89,NE,35,2.0,5.0,70,0.00,,,0.00,401,weatherlink.com 1.10,2013-06-21 05:51:00,
2013-06-21 08:06:00,82.4,71.0,29.88,SE,134,1.0,5.0,69,0.00,,,0.00,439,weatherlink.com 1.10,2013-06-21 06:06:00,
2013-06-21 08:21:00,83.3,72.0,29.89,South,181,1.0,5.0,69,0.00,,,0.00,476,weatherlink.com 1.10,2013-06-21 06:21:00,
2013-06-21 08:36:00,84.6,72.0,29.89,SW,221,2.0,5.0,65,0.00,,,0.00,515,weatherlink.com 1.10,2013-06-21 06:36:00,
2013-06-21 08:51:00,85.7,72.0,29.89,North,360,3.0,7.0,63,0.00,,,0.00,554,weatherlink.com 1.10,2013-06-21 06:51:00,
2013-06-21 09:06:00,86.3,71.0,29.88,SSW,200,5.0,8.0,61,0.00,,,0.00,578,weatherlink.com 1.10,2013-06-21 07:06:00,
2013-06-21 09:37:00,92.3,69.0,29.88,SW,228,0.0,5.0,46,0.00,,,0.00,649,weatherlink.com 1.10,2013-06-21 07:37:00,
2013-06-21 10:07:00,93.3,68.0,29.89,SW,232,1.0,7.0,44,0.00,,,0.00,728,weatherlink.com 1.10,2013-06-21 08:07:00,
2013-06-21 10:22:00,93.2,68.0,29.89,North,360,0.0,5.0,44,0.00,,,0.00,761,weatherlink.com 1.10,2013-06-21 08:22:00,
2013-06-21 10:37:00,93.2,69.0,29.89,North,360,0.0,7.0,46,0.00,,,0.00,784,weatherlink.com 1.10,2013-06-21 08:37:00,
2013-06-21 10:52:00,94.0,69.0,29.89,North,360,2.0,7.0,44,0.00,,,0.00,805,weatherlink.com 1.10,2013-06-21 08:52:00,
2013-06-21 11:07:00,93.4,70.0,29.90,South,189,0.0,5.0,47,0.00,,,0.00,800,weatherlink.com 1.10,2013-06-21 09:07:00,
2013-06-21 12:40:00,94.9,65.0,29.90,North,360,3.0,7.0,37,0.00,,,0.00,858,weatherlink.com 1.10,2013-06-21 10:40:00,
2013-06-21 12:52:00,94.6,67.0,29.90,SW,222,2.0,6.0,40,0.00,,,0.00,860,weatherlink.com 1.10,2013-06-21 10:52:00,
2013-06-21 13:07:00,94.3,67.0,29.90,North,360,2.0,9.0,41,0.00,,,0.00,853,weatherlink.com 1.10,2013-06-21 11:07:00,
2013-06-21 13:22:00,95.2,67.0,29.90,NNW,327,1.0,5.0,40,0.00,,,0.00,844,weatherlink.com 1.10,2013-06-21 11:22:00,
2013-06-21 13:37:00,94.7,68.0,29.90,North,360,0.0,7.0,41,0.00,,,0.00,838,weatherlink.com 1.10,2013-06-21 11:37:00,
2013-06-21 13:52:00,94.2,67.0,29.90,NNW,333,3.0,7.0,41,0.00,,,0.00,814,weatherlink.com 1.10,2013-06-21 11:52:00,
2013-06-21 14:07:00,94.4,67.0,29.89,SW,235,0.0,5.0,40,0.00,,,0.00,807,weatherlink.com 1.10,2013-06-21 12:07:00,
2013-06-21 14:22:00,94.3,67.0,29.89,SW,221,0.0,4.0,40,0.00,,,0.00,793,weatherlink.com 1.10,2013-06-21 12:22:00,
2013-06-21 14:37:00,94.4,66.0,29.89,North,360,1.0,4.0,39,0.00,,,0.00,761,weatherlink.com 1.10,2013-06-21 12:37:00,
2013-06-21 14:52:00,93.5,66.0,29.89,SW,214,5.0,6.0,41,0.00,,,0.00,733,weatherlink.com 1.10,2013-06-21 12:52:00,
2013-06-21 15:22:00,93.7,68.0,29.88,SW,221,1.0,2.0,43,0.00,,,0.00,673,weatherlink.com 1.10,2013-06-21 13:22:00,
2013-06-21 15:37:00,93.0,69.0,29.88,SE,143,0.0,4.0,46,0.00,,,0.00,633,weatherlink.com 1.10,2013-06-21 13:37:00,
2013-06-21 15:52:00,92.6,67.0,29.88,North,360,0.0,4.0,43,0.00,,,0.00,598,weatherlink.com 1.10,2013-06-21 13:52:00,
2013-06-21 16:07:00,92.8,68.0,29.87,WSW,238,0.0,3.0,44,0.00,,,0.00,557,weatherlink.com 1.10,2013-06-21 14:07:00,
2013-06-21 16:23:00,92.7,68.0,29.87,South,186,2.0,5.0,45,0.00,,,0.00,141,weatherlink.com 1.10,2013-06-21 14:23:00,
2013-06-21 17:22:00,91.8,67.0,29.86,SSE,157,1.0,6.0,44,0.00,,,0.00,156,weatherlink.com 1.10,2013-06-21 15:22:00,
2013-06-21 17:37:00,91.7,68.0,29.87,SW,222,0.0,8.0,46,0.00,,,0.00,137,weatherlink.com 1.10,2013-06-21 15:37:00,
2013-06-21 17:52:00,92.0,68.0,29.86,SW,232,2.0,5.0,45,0.00,,,0.00,102,weatherlink.com 1.10,2013-06-21 15:52:00,
2013-06-21 18:23:00,91.3,70.0,29.87,SW,225,0.0,1.0,50,0.00,,,0.00,53,weatherlink.com 1.10,2013-06-21 16:23:00,
2013-06-21 19:23:00,88.4,71.0,29.87,SSW,213,0.0,1.0,56,0.00,,,0.00,33,weatherlink.com 1.10,2013-06-21 17:23:00,
2013-06-21 20:08:00,85.1,70.0,29.87,SSW,211,0.0,1.0,60,0.00,,,0.00,14,weatherlink.com 1.10,2013-06-21 18:08:00,
2013-06-21 20:23:00,84.1,70.0,29.87,SW,214,0.0,1.0,62,0.00,,,0.00,9,weatherlink.com 1.10,2013-06-21 18:23:00,
2013-06-21 20:38:00,83.0,70.0,29.87,North,360,0.0,1.0,64,0.00,,,0.00,0,weatherlink.com 1.10,2013-06-21 18:38:00,
2013-06-21 21:08:00,81.5,69.0,29.89,SSW,213,0.0,1.0,66,0.00,,,0.00,0,weatherlink.com 1.10,2013-06-21 19:08:00,
2013-06-21 21:23:00,80.8,69.0,29.89,SSW,213,0.0,1.0,67,0.00,,,0.00,0,weatherlink.com 1.10,2013-06-21 19:23:00,
2013-06-21 21:38:00,80.2,69.0,29.89,SW,215,0.0,1.0,68,0.00,,,0.00,0,weatherlink.com 1.10,2013-06-21 19:38:00,
2013-06-21 22:23:00,79.1,68.0,29.90,North,360,0.0,1.0,69,0.00,,,0.00,0,weatherlink.com 1.10,2013-06-21 20:23:00,
2013-06-21 22:38:00,79.2,68.0,29.90,SW,215,1.0,1.0,69,0.00,,,0.00,0,weatherlink.com 1.10,2013-06-21 20:38:00,
2013-06-21 22:53:00,79.3,69.0,29.90,SW,227,0.0,1.0,70,0.00,,,0.00,0,weatherlink.com 1.10,2013-06-21 20:53:00,
2013-06-21 23:08:00,78.8,68.0,29.90,SW,234,0.0,1.0,70,0.00,,,0.00,0,weatherlink.com 1.10,2013-06-21 21:08:00,
2013-06-21 23:23:00,78.1,68.0,29.90,SW,231,0.0,1.0,71,0.00,,,0.00,0,weatherlink.com 1.10,2013-06-21 21:23:00,
2013-06-21 23:38:00,77.8,68.0,29.91,SW,229,0.0,1.0,72,0.00,,,0.00,0,weatherlink.com 1.10,2013-06-21 21:38:00,
2013-06-21 23:53:00,77.9,69.0,29.91,SW,233,0.0,1.0,73,0.00,,,0.00,0,weatherlink.com 1.10,2013-06-21 21:53:00,